createdAt,value
2018-04-01T00:01:25.130Z,10.50
2018-04-01T00:03:52.382Z,10.50
2018-04-01T00:06:19.738Z,10.50
2018-04-01T00:08:47.105Z,10.60
2018-04-01T00:11:14.449Z,10.60
2018-04-01T00:13:41.804Z,10.60
2018-04-01T00:16:09.164Z,10.60
2018-04-01T00:18:36.515Z,10.50
2018-04-01T00:21:03.870Z,10.60
2018-04-01T00:23:31.225Z,10.60
2018-04-01T00:25:58.580Z,10.60
2018-04-01T00:28:25.935Z,10.50
2018-04-01T00:30:53.293Z,10.40
2018-04-01T00:33:20.653Z,10.30
2018-04-01T00:35:48.812Z,10.10
2018-04-01T00:38:16.179Z,9.90
2018-04-01T00:40:43.532Z,9.80
2018-04-01T00:43:10.886Z,9.70
2018-04-01T00:45:38.244Z,9.70
2018-04-01T00:48:05.597Z,9.70
2018-04-01T00:50:32.953Z,9.70
2018-04-01T00:53:00.307Z,9.80
2018-04-01T00:55:27.663Z,9.80
2018-04-01T00:57:55.018Z,9.80
2018-04-01T01:00:22.374Z,9.80
2018-04-01T01:02:49.729Z,9.80
2018-04-01T01:05:17.084Z,9.80
2018-04-01T01:07:44.440Z,9.80
2018-04-01T01:10:11.827Z,9.80
2018-04-01T01:12:39.150Z,9.80
2018-04-01T01:15:06.505Z,9.80
2018-04-01T01:17:33.862Z,9.70
2018-04-01T01:20:01.216Z,9.70
2018-04-01T01:22:28.752Z,9.70
2018-04-01T01:24:56.955Z,9.60
2018-04-01T01:27:24.306Z,9.60
2018-04-01T01:29:51.665Z,9.60
2018-04-01T01:32:19.019Z,9.50
2018-04-01T01:34:46.372Z,9.40
2018-04-01T01:37:13.728Z,9.40
2018-04-01T01:39:41.082Z,9.40
2018-04-01T01:42:08.438Z,9.30
2018-04-01T01:44:35.794Z,9.30
2018-04-01T01:47:03.149Z,9.20
2018-04-01T01:49:30.503Z,9.20
2018-04-01T01:51:57.862Z,9.10
2018-04-01T01:54:25.216Z,9.10
2018-04-01T01:56:52.570Z,9.00
2018-04-01T01:59:19.926Z,9.00
2018-04-01T02:01:47.280Z,9.00
2018-04-01T02:04:14.636Z,9.00
2018-04-01T02:06:41.993Z,9.00
2018-04-01T02:09:09.348Z,8.90
2018-04-01T02:11:36.702Z,8.90
2018-04-01T02:14:04.057Z,8.80
2018-04-01T02:16:31.412Z,8.70
2018-04-01T02:18:58.768Z,8.60
2018-04-01T02:21:26.229Z,8.50
2018-04-01T02:23:53.582Z,8.40
2018-04-01T02:26:20.937Z,8.30
2018-04-01T02:28:48.293Z,8.10
2018-04-01T02:31:15.649Z,8.10
2018-04-01T02:33:42.905Z,8.00
2018-04-01T02:36:10.256Z,8.00
2018-04-01T02:38:37.613Z,8.00
2018-04-01T02:41:04.966Z,7.90
2018-04-01T02:43:32.322Z,7.90
2018-04-01T02:46:00.394Z,7.80
2018-04-01T02:48:27.749Z,7.80
2018-04-01T02:50:55.115Z,7.80
2018-04-01T02:53:22.460Z,7.80
2018-04-01T02:55:49.815Z,7.90
2018-04-01T02:58:17.226Z,7.90
2018-04-01T03:00:45.345Z,7.90
2018-04-01T03:03:12.700Z,7.90
2018-04-01T03:05:40.057Z,7.90
2018-04-01T03:08:07.412Z,7.90
2018-04-01T03:10:34.766Z,7.90
2018-04-01T03:13:02.121Z,8.00
2018-04-01T03:15:29.476Z,7.90
2018-04-01T03:17:56.834Z,8.00
2018-04-01T03:20:24.192Z,7.90
2018-04-01T03:22:51.542Z,7.90
2018-04-01T03:25:18.898Z,7.60
2018-04-01T03:27:46.253Z,7.60
2018-04-01T03:30:13.610Z,7.50
2018-04-01T03:32:40.964Z,7.50
2018-04-01T03:35:08.323Z,7.50
2018-04-01T03:37:35.679Z,7.40
2018-04-01T03:40:03.030Z,7.50
2018-04-01T03:42:30.386Z,7.60
2018-04-01T03:44:57.740Z,7.70
2018-04-01T03:47:25.096Z,7.70
2018-04-01T03:49:52.452Z,7.60
2018-04-01T03:52:19.807Z,7.60
2018-04-01T03:54:47.162Z,7.50
2018-04-01T03:57:14.518Z,7.60
2018-04-01T03:59:41.871Z,7.50
2018-04-01T04:02:09.227Z,7.50
2018-04-01T04:04:36.582Z,7.50
2018-04-01T04:07:03.939Z,7.30
2018-04-01T04:09:31.298Z,7.30
2018-04-01T04:11:58.648Z,7.30
2018-04-01T04:14:26.005Z,7.30
2018-04-01T04:16:53.360Z,7.20
2018-04-01T04:19:20.716Z,7.10
2018-04-01T04:21:48.078Z,7.10
2018-04-01T04:24:15.427Z,7.10
2018-04-01T04:26:42.780Z,7.10
2018-04-01T04:29:10.136Z,7.00
2018-04-01T04:31:37.492Z,7.00
2018-04-01T04:34:04.846Z,7.00
2018-04-01T04:36:32.238Z,6.90
2018-04-01T04:39:00.376Z,6.90
2018-04-01T04:41:27.731Z,6.90
2018-04-01T04:43:55.086Z,6.80
2018-04-01T04:46:22.448Z,6.70
2018-04-01T04:48:49.797Z,6.70
2018-04-01T04:51:17.153Z,6.60
2018-04-01T04:53:44.508Z,6.60
2018-04-01T04:56:11.867Z,6.60
2018-04-01T04:58:39.218Z,6.60
2018-04-01T05:01:06.574Z,6.50
2018-04-01T05:03:33.859Z,6.50
2018-04-01T05:06:02.001Z,6.40
2018-04-01T05:08:29.358Z,6.40
2018-04-01T05:10:56.713Z,6.40
2018-04-01T05:13:24.070Z,6.40
2018-04-01T05:15:51.427Z,6.40
2018-04-01T05:18:18.781Z,6.40
2018-04-01T05:20:47.814Z,6.40
2018-04-01T05:23:15.946Z,6.40
2018-04-01T05:25:43.302Z,6.40
2018-04-01T05:28:10.657Z,6.40
2018-04-01T05:30:38.012Z,6.50
2018-04-01T05:33:05.370Z,6.50
2018-04-01T05:35:32.723Z,6.50
2018-04-01T05:38:00.078Z,6.60
2018-04-01T05:40:27.432Z,6.70
2018-04-01T05:42:54.789Z,7.00
2018-04-01T05:45:22.143Z,7.30
2018-04-01T05:47:49.499Z,7.60
2018-04-01T05:50:16.856Z,8.00
2018-04-01T05:52:44.210Z,8.40
2018-04-01T05:55:11.565Z,8.90
2018-04-01T05:57:38.921Z,9.50
2018-04-01T06:00:06.276Z,9.90
2018-04-01T06:02:33.558Z,10.40
2018-04-01T06:05:00.884Z,10.70
2018-04-01T06:07:29.554Z,11.00
2018-04-01T06:09:56.927Z,11.20
2018-04-01T06:12:24.281Z,11.10
2018-04-01T06:14:51.636Z,10.90
2018-04-01T06:17:18.991Z,10.50
2018-04-01T06:19:46.347Z,10.20
2018-04-01T06:22:13.702Z,9.80
2018-04-01T06:24:41.058Z,9.60
2018-04-01T06:27:08.413Z,9.40
2018-04-01T06:29:35.769Z,9.20
2018-04-01T06:32:03.124Z,9.10
2018-04-01T06:34:30.478Z,8.90
2018-04-01T06:36:57.834Z,8.70
2018-04-01T06:39:25.194Z,8.60
2018-04-01T06:41:52.547Z,8.30
2018-04-01T06:44:19.902Z,8.20
2018-04-01T06:46:47.258Z,8.20
2018-04-01T06:49:14.611Z,8.20
2018-04-01T06:51:41.966Z,8.20
2018-04-01T06:54:09.322Z,8.20
2018-04-01T06:56:36.676Z,8.20
2018-04-01T06:59:04.850Z,8.20
2018-04-01T07:01:32.207Z,8.20
2018-04-01T07:03:59.562Z,8.20
2018-04-01T07:06:26.917Z,8.20
2018-04-01T07:08:54.272Z,8.20
2018-04-01T07:11:21.632Z,8.20
2018-04-01T07:13:48.982Z,8.30
2018-04-01T07:16:16.337Z,8.50
2018-04-01T07:18:43.694Z,8.60
2018-04-01T07:21:11.049Z,8.80
2018-04-01T07:23:38.408Z,8.90
2018-04-01T07:26:05.760Z,9.00
2018-04-01T07:28:33.119Z,9.10
2018-04-01T07:31:00.470Z,9.10
2018-04-01T07:33:27.826Z,9.10
2018-04-01T07:35:57.359Z,9.10
2018-04-01T07:38:27.486Z,9.00
2018-04-01T07:40:55.011Z,9.00
2018-04-01T07:43:22.366Z,9.00
2018-04-01T07:45:49.721Z,9.10
2018-04-01T07:48:17.078Z,9.10
2018-04-01T07:50:45.150Z,9.10
2018-04-01T07:53:12.506Z,9.10
2018-04-01T07:55:39.861Z,9.10
2018-04-01T07:58:07.220Z,9.20
2018-04-01T08:00:34.571Z,9.20
2018-04-01T08:03:01.935Z,9.30
2018-04-01T08:05:29.281Z,9.40
2018-04-01T08:07:56.637Z,9.40
2018-04-01T08:10:24.037Z,9.50
2018-04-01T08:12:52.169Z,9.40
2018-04-01T08:15:19.727Z,9.40
2018-04-01T08:17:47.205Z,9.40
2018-04-01T08:20:15.052Z,9.40
2018-04-01T08:22:42.407Z,9.40
2018-04-01T08:25:09.762Z,9.50
2018-04-01T08:27:37.322Z,9.60
2018-04-01T08:30:04.677Z,9.80
2018-04-01T08:32:32.033Z,9.90
2018-04-01T08:34:59.390Z,10.20
2018-04-01T08:37:28.075Z,10.40
2018-04-01T08:39:56.351Z,10.80
2018-04-01T08:42:23.707Z,10.70
2018-04-01T08:44:51.074Z,10.80
2018-04-01T08:47:18.418Z,10.70
2018-04-01T08:49:45.774Z,10.50
2018-04-01T08:52:13.134Z,10.30
2018-04-01T08:54:40.484Z,10.30
2018-04-01T08:57:07.840Z,10.30
2018-04-01T08:59:35.208Z,10.40
2018-04-01T09:02:03.369Z,10.60
2018-04-01T09:04:30.724Z,10.50
2018-04-01T09:06:58.081Z,10.50
2018-04-01T09:09:26.667Z,10.50
2018-04-01T09:11:54.672Z,10.50
2018-04-01T09:14:22.911Z,10.40
2018-04-01T09:16:51.822Z,10.20
2018-04-01T09:19:19.160Z,10.20
2018-04-01T09:21:46.513Z,10.20
2018-04-01T09:24:13.867Z,10.20
2018-04-01T09:26:41.223Z,10.10
2018-04-01T09:29:08.577Z,10.10
2018-04-01T09:31:35.933Z,10.20
2018-04-01T09:34:03.289Z,10.30
2018-04-01T09:36:30.644Z,10.40
2018-04-01T09:38:58.001Z,10.50
2018-04-01T09:41:25.354Z,10.60
2018-04-01T09:43:52.710Z,10.70
2018-04-01T09:46:20.065Z,11.00
2018-04-01T09:48:47.637Z,11.10
2018-04-01T09:51:14.981Z,11.30
2018-04-01T09:53:42.337Z,11.70
2018-04-01T09:56:09.693Z,12.10
2018-04-01T09:58:37.046Z,12.50
2018-04-01T10:01:04.913Z,12.80
2018-04-01T10:03:32.782Z,13.50
2018-04-01T10:06:00.652Z,13.90
2018-04-01T10:08:28.517Z,13.90
2018-04-01T10:10:56.384Z,13.70
2018-04-01T10:13:24.282Z,13.60
2018-04-01T10:15:52.838Z,14.20
2018-04-01T10:18:21.450Z,14.10
2018-04-01T10:20:49.285Z,14.70
2018-04-01T10:23:17.153Z,14.70
2018-04-01T10:25:45.021Z,14.30
2018-04-01T10:28:12.888Z,13.50
2018-04-01T10:30:40.755Z,12.60
2018-04-01T10:33:08.621Z,11.70
2018-04-01T10:35:36.490Z,11.10
2018-04-01T10:38:04.413Z,10.70
2018-04-01T10:40:32.947Z,10.30
2018-04-01T10:43:00.707Z,10.30
2018-04-01T10:45:28.574Z,10.50
2018-04-01T10:47:56.441Z,10.90
2018-04-01T10:50:25.425Z,11.50
2018-04-01T10:52:53.302Z,12.30
2018-04-01T10:55:21.742Z,13.00
2018-04-01T10:57:52.259Z,13.30
2018-04-01T11:00:19.668Z,13.40
2018-04-01T11:02:47.126Z,13.00
2018-04-01T11:05:15.765Z,12.90
2018-04-01T11:07:43.066Z,13.00
2018-04-01T11:10:12.938Z,13.60
2018-04-01T11:28:58.028Z,13.70
2018-04-01T11:31:28.208Z,15.10
2018-04-01T11:33:57.937Z,15.00
2018-04-01T11:36:28.210Z,15.40
2018-04-01T11:38:57.855Z,15.90
2018-04-01T11:41:28.186Z,16.20
2018-04-01T11:43:57.799Z,16.10
2018-04-01T11:46:25.320Z,16.30
2018-04-01T11:48:52.529Z,16.00
2018-04-01T11:51:19.826Z,15.70
2018-04-01T11:53:47.185Z,15.50
2018-04-01T11:56:14.675Z,15.10
2018-04-01T11:58:42.916Z,14.60
2018-04-01T12:01:10.475Z,14.60
2018-04-01T12:03:37.831Z,14.60
2018-04-01T12:06:05.187Z,14.50
2018-04-01T12:08:32.543Z,14.10
2018-04-01T12:11:00.716Z,13.20
2018-04-01T12:13:28.073Z,13.10
2018-04-01T12:15:55.426Z,12.80
2018-04-01T12:18:22.800Z,12.60
2018-04-01T12:20:50.445Z,12.40
2018-04-01T12:23:17.800Z,12.40
2018-04-01T12:25:45.156Z,12.50
2018-04-01T12:28:12.817Z,12.80
2018-04-01T12:30:40.178Z,13.50
2018-04-01T12:33:07.532Z,14.20
2018-04-01T12:35:34.884Z,14.90
2018-04-01T12:38:02.241Z,15.30
2018-04-01T12:40:29.522Z,15.50
2018-04-01T12:42:56.740Z,15.90
2018-04-01T12:45:23.967Z,15.60
2018-04-01T12:47:51.177Z,15.30
2018-04-01T12:50:18.676Z,15.10
2018-04-01T12:52:45.898Z,14.80
2018-04-01T12:55:14.032Z,13.70
2018-04-01T12:57:41.389Z,13.70
2018-04-01T13:00:08.744Z,13.40
2018-04-01T13:02:36.112Z,13.10
2018-04-01T13:05:03.455Z,13.00
2018-04-01T13:07:30.666Z,12.90
2018-04-01T13:09:57.961Z,13.00
2018-04-01T13:12:25.319Z,12.90
2018-04-01T13:14:53.308Z,13.00
2018-04-01T13:17:20.954Z,13.00
2018-04-01T13:19:49.332Z,13.00
2018-04-01T13:22:16.540Z,13.00
2018-04-01T13:24:43.833Z,13.00
2018-04-01T13:27:11.187Z,12.80
2018-04-01T13:29:38.545Z,12.80
2018-04-01T13:32:05.842Z,12.90
2018-04-01T13:34:33.898Z,13.40
2018-04-01T13:37:01.891Z,13.90
2018-04-01T13:39:29.874Z,14.50
2018-04-01T13:42:00.425Z,14.50
2018-04-01T13:44:39.777Z,14.60
2018-04-01T13:47:12.164Z,14.60
2018-04-01T13:49:44.881Z,14.50
2018-04-01T13:52:13.005Z,13.60
2018-04-01T13:54:40.220Z,13.60
2018-04-01T13:57:07.620Z,13.40
2018-04-01T13:59:34.968Z,13.10
2018-04-01T14:02:02.323Z,13.00
2018-04-01T14:04:29.673Z,12.80
2018-04-01T14:06:57.034Z,12.70
2018-04-01T14:09:24.390Z,12.70
2018-04-01T14:11:51.615Z,13.00
2018-04-01T14:14:18.836Z,13.30
2018-04-01T14:16:46.813Z,13.90
2018-04-01T14:19:14.938Z,14.00
2018-04-01T14:21:42.293Z,14.00
2018-04-01T14:24:09.794Z,14.10
2018-04-01T14:26:37.112Z,14.20
2018-04-01T14:29:04.460Z,14.00
2018-04-01T14:31:37.098Z,13.70
2018-04-01T14:34:11.113Z,13.60
2018-04-01T14:36:42.846Z,13.50
2018-04-01T14:39:16.148Z,13.60
2018-04-01T14:41:49.328Z,13.60
2018-04-01T14:44:22.380Z,13.60
2018-04-01T14:46:55.090Z,13.50
2018-04-01T14:49:27.369Z,13.50
2018-04-01T14:52:00.370Z,13.50
2018-04-01T14:54:32.232Z,13.50
2018-04-01T14:57:04.795Z,13.50
2018-04-01T14:59:39.832Z,13.50
2018-04-01T15:02:10.453Z,13.70
2018-04-01T15:04:39.584Z,13.60
2018-04-01T15:07:09.207Z,13.80
2018-04-01T15:09:36.489Z,13.80
2018-04-01T15:12:03.782Z,13.80
2018-04-01T15:14:31.916Z,14.00
2018-04-01T15:16:59.271Z,14.00
2018-04-01T15:19:26.485Z,13.90
2018-04-01T15:21:53.777Z,13.80
2018-04-01T15:24:21.133Z,13.60
2018-04-01T15:26:48.346Z,13.50
2018-04-01T15:29:15.586Z,13.40
2018-04-01T15:31:43.711Z,13.10
2018-04-01T15:34:11.067Z,13.10
2018-04-01T15:36:38.289Z,12.90
2018-04-01T15:39:08.111Z,12.70
2018-04-01T15:41:37.942Z,12.60
2018-04-01T15:44:06.985Z,12.40
2018-04-01T15:46:35.113Z,12.10
2018-04-01T15:49:02.468Z,12.10
2018-04-01T15:51:29.824Z,12.00
2018-04-01T15:53:58.113Z,11.90
2018-04-01T15:56:25.333Z,11.70
2018-04-01T15:58:52.969Z,11.50
2018-04-01T16:01:23.660Z,11.40
2018-04-01T16:03:53.131Z,11.30
2018-04-01T16:06:22.549Z,11.40
2018-04-01T16:08:51.857Z,11.40
2018-04-01T16:11:22.473Z,11.30
2018-04-01T16:13:53.332Z,11.20
2018-04-01T16:16:24.124Z,11.20
2018-04-01T16:18:51.417Z,11.10
2018-04-01T16:21:18.631Z,10.90
2018-04-01T16:23:45.860Z,10.90
2018-04-01T16:26:13.835Z,10.90
2018-04-01T16:28:41.842Z,11.00
2018-04-01T16:31:09.073Z,11.00
2018-04-01T16:33:36.299Z,11.00
2018-04-01T16:36:04.302Z,10.90
2018-04-01T16:38:31.517Z,10.80
2018-04-01T16:40:58.946Z,11.00
2018-04-01T16:43:26.301Z,11.10
2018-04-01T16:45:53.659Z,11.10
2018-04-01T16:48:21.011Z,11.20
2018-04-01T16:50:48.368Z,11.30
2018-04-01T16:53:15.722Z,11.30
2018-04-01T16:55:43.078Z,11.40
2018-04-01T16:58:12.398Z,11.40
2018-04-01T17:00:41.277Z,11.50
2018-04-01T17:03:09.907Z,11.50
2018-04-01T17:05:39.156Z,11.50
2018-04-01T17:08:08.885Z,11.50
2018-04-01T17:10:36.097Z,11.60
2018-04-01T17:13:03.313Z,11.70
2018-04-01T17:15:31.341Z,11.70
2018-04-01T17:17:58.698Z,11.70
2018-04-01T17:20:26.258Z,11.70
2018-04-01T17:22:53.514Z,11.70
2018-04-01T17:25:20.871Z,11.50
2018-04-01T17:27:48.222Z,11.30
2018-04-01T17:30:16.397Z,11.20
2018-04-01T17:32:43.618Z,11.20
2018-04-01T17:35:10.833Z,11.10
2018-04-01T17:37:38.973Z,11.00
2018-04-01T17:40:06.329Z,11.10
2018-04-01T17:42:33.613Z,11.10
2018-04-01T17:45:01.594Z,11.10
2018-04-01T17:47:29.726Z,11.10
2018-04-01T17:49:57.080Z,11.10
2018-04-01T17:52:24.310Z,11.10
2018-04-01T17:54:51.539Z,11.10
2018-04-01T17:57:18.812Z,11.10
2018-04-01T17:59:46.030Z,11.10
2018-04-01T18:02:14.013Z,11.10
2018-04-01T18:04:41.231Z,11.10
2018-04-01T18:07:08.461Z,11.20
2018-04-01T18:09:35.681Z,11.20
2018-04-01T18:12:02.897Z,11.20
2018-04-01T18:14:32.184Z,11.20
2018-04-01T18:16:59.413Z,11.10
2018-04-01T18:19:26.638Z,11.10
2018-04-01T18:21:53.868Z,11.00
2018-04-01T18:24:21.894Z,10.80
2018-04-01T18:26:49.145Z,10.80
2018-04-01T18:29:16.380Z,10.70
2018-04-01T18:31:43.614Z,10.60
2018-04-01T18:34:10.873Z,10.50
2018-04-01T18:36:38.098Z,10.50
2018-04-01T18:39:06.077Z,10.40
2018-04-01T18:41:34.052Z,10.30
2018-04-01T18:44:01.277Z,10.30
2018-04-01T18:46:29.284Z,10.30
2018-04-01T18:48:56.518Z,10.30
2018-04-01T18:51:24.502Z,10.40
2018-04-01T18:53:51.730Z,10.40
2018-04-01T18:56:19.770Z,10.10
2018-04-01T18:58:47.233Z,10.10
2018-04-01T19:01:14.582Z,9.90
2018-04-01T19:03:41.939Z,9.80
2018-04-01T19:06:09.167Z,9.80
2018-04-01T19:08:36.389Z,9.70
2018-04-01T19:11:04.366Z,9.80
2018-04-01T19:13:31.577Z,9.80
2018-04-01T19:15:59.327Z,9.80
2018-04-01T19:18:27.050Z,9.80
2018-04-01T19:20:54.770Z,9.80
2018-04-01T19:23:22.625Z,9.90
2018-04-01T19:25:50.357Z,9.90
2018-04-01T19:28:18.088Z,10.00
2018-04-01T19:30:46.585Z,10.00
2018-04-01T19:33:14.306Z,10.00
2018-04-01T19:35:42.021Z,9.90
2018-04-01T19:38:09.781Z,9.90
2018-04-01T19:40:37.491Z,9.70
2018-04-01T19:43:05.209Z,9.70
2018-04-01T19:45:33.020Z,9.80
2018-04-01T19:48:00.887Z,9.80
2018-04-01T19:50:28.598Z,9.90
2018-04-01T19:52:57.126Z,9.80
2018-04-01T19:55:25.002Z,9.80
2018-04-01T19:57:52.868Z,9.80
2018-04-01T20:00:20.606Z,9.70
2018-04-01T20:02:48.355Z,9.60
2018-04-01T20:05:16.057Z,9.60
2018-04-01T20:07:43.845Z,9.60
2018-04-01T20:10:11.549Z,9.40
2018-04-01T20:12:39.259Z,9.30
2018-04-01T20:15:07.002Z,9.40
2018-04-01T20:17:34.723Z,9.50
2018-04-01T20:20:03.265Z,9.60
2018-04-01T20:22:31.133Z,9.60
2018-04-01T20:24:58.878Z,9.60
2018-04-01T20:27:26.595Z,9.60
2018-04-01T20:29:54.333Z,9.70
2018-04-01T20:32:22.042Z,9.70
2018-04-01T20:34:49.743Z,9.70
2018-04-01T20:37:17.622Z,9.70
2018-04-01T20:39:45.486Z,9.70
2018-04-01T20:42:13.252Z,9.70
2018-04-01T20:44:41.119Z,9.70
2018-04-01T20:47:08.826Z,9.70
2018-04-01T20:49:37.468Z,9.60
2018-04-01T20:52:05.187Z,9.60
2018-04-01T20:54:32.897Z,9.60
2018-04-01T20:57:00.610Z,9.50
2018-04-01T20:59:28.318Z,9.50
2018-04-01T21:01:56.038Z,9.50
2018-04-01T21:04:23.751Z,9.40
2018-04-01T21:06:51.524Z,9.40
2018-04-01T21:09:19.383Z,9.30
2018-04-01T21:11:47.251Z,9.20
2018-04-01T21:14:15.116Z,9.20
2018-04-01T21:16:42.995Z,9.20
2018-04-01T21:19:10.722Z,9.20
2018-04-01T21:21:38.436Z,9.10
2018-04-01T21:24:06.149Z,9.10
2018-04-01T21:26:33.862Z,9.00
2018-04-01T21:29:01.582Z,9.00
2018-04-01T21:31:29.300Z,9.00
2018-04-01T21:33:57.781Z,9.10
2018-04-01T21:36:26.264Z,9.10
2018-04-01T21:38:54.815Z,9.10
2018-04-01T21:41:22.526Z,9.10
2018-04-01T21:43:50.266Z,9.10
2018-04-01T21:46:18.832Z,9.10
2018-04-01T21:48:46.550Z,9.20
2018-04-01T21:51:14.257Z,9.20
2018-04-01T21:53:41.963Z,9.20
2018-04-01T21:56:10.448Z,9.20
2018-04-01T21:58:39.084Z,9.20
2018-04-01T22:01:06.952Z,9.20
2018-04-01T22:03:34.819Z,9.20
2018-04-01T22:06:02.686Z,9.20
2018-04-01T22:08:31.163Z,9.20
2018-04-01T22:10:58.878Z,9.20
2018-04-01T22:13:27.345Z,9.00
2018-04-01T22:15:55.822Z,8.90
2018-04-01T22:18:23.525Z,8.90
2018-04-01T22:20:51.238Z,8.90
2018-04-01T22:23:18.954Z,8.90
2018-04-01T22:25:46.702Z,8.90
2018-04-01T22:28:14.516Z,8.90
2018-04-01T22:30:42.230Z,8.70
2018-04-01T22:33:09.966Z,8.70
2018-04-01T22:35:37.714Z,8.80
2018-04-01T22:38:05.418Z,8.90
2018-04-01T22:40:33.889Z,8.90
2018-04-01T22:43:02.371Z,8.90
2018-04-01T22:45:30.917Z,8.90
2018-04-01T22:47:58.785Z,8.90
2018-04-01T22:50:26.522Z,8.90
2018-04-01T22:52:54.272Z,8.90
2018-04-01T22:55:22.183Z,8.80
2018-04-01T22:57:50.049Z,8.70
2018-04-01T23:00:17.918Z,8.70
2018-04-01T23:02:45.629Z,8.70
2018-04-01T23:05:14.102Z,8.70
2018-04-01T23:07:42.578Z,8.70
2018-04-01T23:10:11.231Z,8.70
2018-04-01T23:12:39.098Z,8.70
2018-04-01T23:15:06.964Z,8.70
2018-04-01T23:17:34.832Z,8.80
2018-04-01T23:20:02.700Z,8.80
2018-04-01T23:22:30.566Z,8.70
2018-04-01T23:24:58.433Z,8.70
2018-04-01T23:27:26.140Z,8.70
2018-04-01T23:29:54.627Z,8.60
2018-04-01T23:32:23.106Z,8.60
2018-04-01T23:34:51.590Z,8.50
2018-04-01T23:37:19.301Z,8.50
2018-04-01T23:39:47.022Z,8.50
2018-04-01T23:42:14.727Z,8.40
2018-04-01T23:44:42.438Z,8.40
2018-04-01T23:47:10.930Z,8.10
2018-04-01T23:49:38.669Z,8.10
2018-04-01T23:52:06.385Z,8.00
2018-04-01T23:54:34.099Z,7.70
2018-04-01T23:57:01.891Z,7.60
2018-04-01T23:59:29.703Z,7.70
